sensor_id;sensor_type;location;lat;lon;timestamp;pressure;altitude;pressure_sealevel;temperature;humidity
6387;BME280;3226;42.162;24.756;2023-02-22T00:00:27;99447.44;;;12.35;35.99
6387;BME280;3226;42.162;24.756;2023-02-22T00:03:10;99449.38;;;12.33;36.10
6387;BME280;3226;42.162;24.756;2023-02-22T00:05:42;99448.25;;;12.36;35.62
6387;BME280;3226;42.162;24.756;2023-02-22T00:08:14;99448.22;;;12.46;35.61
6387;BME280;3226;42.162;24.756;2023-02-22T00:10:42;99450.28;;;12.52;35.51
6387;BME280;3226;42.162;24.756;2023-02-22T00:13:13;99453.31;;;12.57;35.19
6387;BME280;3226;42.162;24.756;2023-02-22T00:15:41;99449.13;;;12.64;35.10
6387;BME280;3226;42.162;24.756;2023-02-22T00:18:12;99450.88;;;12.73;34.97
6387;BME280;3226;42.162;24.756;2023-02-22T00:20:42;99463.13;;;12.83;34.74
6387;BME280;3226;42.162;24.756;2023-02-22T00:23:14;99462.31;;;12.82;34.83
6387;BME280;3226;42.162;24.756;2023-02-22T00:25:45;99458.16;;;12.80;34.86
6387;BME280;3226;42.162;24.756;2023-02-22T00:28:13;99453.00;;;12.88;34.81
6387;BME280;3226;42.162;24.756;2023-02-22T00:30:42;99448.44;;;12.90;34.54
6387;BME280;3226;42.162;24.756;2023-02-22T00:33:12;99458.22;;;12.98;34.60
6387;BME280;3226;42.162;24.756;2023-02-22T00:35:43;99447.88;;;12.96;34.84
6387;BME280;3226;42.162;24.756;2023-02-22T00:38:13;99450.38;;;12.88;34.67
6387;BME280;3226;42.162;24.756;2023-02-22T00:40:42;99451.34;;;12.87;34.67
6387;BME280;3226;42.162;24.756;2023-02-22T00:43:11;99458.00;;;12.91;34.70
6387;BME280;3226;42.162;24.756;2023-02-22T00:45:39;99458.94;;;12.90;34.57
6387;BME280;3226;42.162;24.756;2023-02-22T00:48:08;99438.28;;;12.77;34.70
6387;BME280;3226;42.162;24.756;2023-02-22T00:50:36;99452.44;;;12.94;34.66
6387;BME280;3226;42.162;24.756;2023-02-22T00:53:05;99457.53;;;12.96;34.70
6387;BME280;3226;42.162;24.756;2023-02-22T00:55:36;99443.38;;;12.79;34.85
6387;BME280;3226;42.162;24.756;2023-02-22T00:58:05;99466.00;;;12.90;34.81
6387;BME280;3226;42.162;24.756;2023-02-22T01:00:35;99471.41;;;12.88;35.09
6387;BME280;3226;42.162;24.756;2023-02-22T01:03:04;99467.13;;;12.87;35.09
6387;BME280;3226;42.162;24.756;2023-02-22T01:05:33;99470.44;;;12.89;35.04
6387;BME280;3226;42.162;24.756;2023-02-22T01:08:02;99468.38;;;12.83;35.43
6387;BME280;3226;42.162;24.756;2023-02-22T01:10:34;99459.66;;;12.92;35.25
6387;BME280;3226;42.162;24.756;2023-02-22T01:13:02;99467.13;;;12.87;35.31
6387;BME280;3226;42.162;24.756;2023-02-22T01:15:36;99466.31;;;12.86;35.41
6387;BME280;3226;42.162;24.756;2023-02-22T01:18:06;99454.66;;;12.89;35.34
6387;BME280;3226;42.162;24.756;2023-02-22T01:20:34;99458.38;;;12.68;36.01
6387;BME280;3226;42.162;24.756;2023-02-22T01:23:03;99451.00;;;12.72;35.82
6387;BME280;3226;42.162;24.756;2023-02-22T01:25:34;99449.78;;;12.76;35.70
6387;BME280;3226;42.162;24.756;2023-02-22T01:28:04;99416.19;;;12.42;35.97
6387;BME280;3226;42.162;24.756;2023-02-22T01:30:34;99456.13;;;12.73;35.95
6387;BME280;3226;42.162;24.756;2023-02-22T01:33:05;99453.22;;;12.77;35.83
6387;BME280;3226;42.162;24.756;2023-02-22T01:35:35;99442.19;;;12.73;35.64
6387;BME280;3226;42.162;24.756;2023-02-22T01:38:04;99446.69;;;12.81;35.62
6387;BME280;3226;42.162;24.756;2023-02-22T01:40:35;99440.38;;;12.73;35.51
6387;BME280;3226;42.162;24.756;2023-02-22T01:43:12;99433.13;;;12.57;35.94
6387;BME280;3226;42.162;24.756;2023-02-22T01:45:54;99448.16;;;12.65;35.87
6387;BME280;3226;42.162;24.756;2023-02-22T01:48:28;99450.19;;;12.71;35.62
6387;BME280;3226;42.162;24.756;2023-02-22T01:50:59;99447.88;;;12.68;35.91
6387;BME280;3226;42.162;24.756;2023-02-22T01:53:30;99448.06;;;12.57;36.14
6387;BME280;3226;42.162;24.756;2023-02-22T01:56:02;99453.41;;;12.65;35.71
6387;BME280;3226;42.162;24.756;2023-02-22T01:58:33;99453.03;;;12.60;35.83
6387;BME280;3226;42.162;24.756;2023-02-22T02:01:02;99458.13;;;12.62;35.75
6387;BME280;3226;42.162;24.756;2023-02-22T02:03:33;99456.09;;;12.46;36.18
6387;BME280;3226;42.162;24.756;2023-02-22T02:06:05;99461.75;;;12.51;35.59
6387;BME280;3226;42.162;24.756;2023-02-22T02:08:43;99454.56;;;12.53;36.06
6387;BME280;3226;42.162;24.756;2023-02-22T02:11:18;99435.03;;;12.27;36.07
6387;BME280;3226;42.162;24.756;2023-02-22T02:13:49;99461.84;;;12.31;36.32
6387;BME280;3226;42.162;24.756;2023-02-22T02:16:17;99464.06;;;12.16;36.64
6387;BME280;3226;42.162;24.756;2023-02-22T02:18:47;99460.22;;;11.91;37.20
6387;BME280;3226;42.162;24.756;2023-02-22T02:21:38;99451.09;;;11.85;37.40
6387;BME280;3226;42.162;24.756;2023-02-22T02:24:28;99456.63;;;12.02;37.36
6387;BME280;3226;42.162;24.756;2023-02-22T02:27:16;99463.41;;;12.04;37.06
6387;BME280;3226;42.162;24.756;2023-02-22T02:33:07;99474.03;;;11.83;37.66
6387;BME280;3226;42.162;24.756;2023-02-22T02:35:47;99463.41;;;11.75;37.88
6387;BME280;3226;42.162;24.756;2023-02-22T02:38:24;99473.63;;;11.68;37.79
6387;BME280;3226;42.162;24.756;2023-02-22T02:41:01;99466.72;;;11.67;37.96
6387;BME280;3226;42.162;24.756;2023-02-22T02:43:33;99463.53;;;11.63;37.99
6387;BME280;3226;42.162;24.756;2023-02-22T02:46:08;99463.25;;;11.66;37.76
6387;BME280;3226;42.162;24.756;2023-02-22T02:48:42;99470.47;;;11.54;37.96
6387;BME280;3226;42.162;24.756;2023-02-22T02:51:12;99461.31;;;11.39;38.15
6387;BME280;3226;42.162;24.756;2023-02-22T02:53:44;99480.81;;;11.36;38.49
6387;BME280;3226;42.162;24.756;2023-02-22T02:56:14;99482.50;;;10.96;39.57
6387;BME280;3226;42.162;24.756;2023-02-22T02:58:44;99487.66;;;10.77;39.94
6387;BME280;3226;42.162;24.756;2023-02-22T03:01:20;99477.38;;;10.54;40.63
6387;BME280;3226;42.162;24.756;2023-02-22T03:04:03;99481.78;;;10.32;41.19
6387;BME280;3226;42.162;24.756;2023-02-22T03:07:01;99480.91;;;10.43;41.19
6387;BME280;3226;42.162;24.756;2023-02-22T03:09:40;99485.63;;;10.49;40.95
6387;BME280;3226;42.162;24.756;2023-02-22T03:12:22;99485.66;;;10.59;40.85
6387;BME280;3226;42.162;24.756;2023-02-22T03:15:04;99489.59;;;10.75;40.43
6387;BME280;3226;42.162;24.756;2023-02-22T03:17:43;99490.66;;;10.62;40.13
6387;BME280;3226;42.162;24.756;2023-02-22T03:20:19;99492.03;;;10.66;39.79
6387;BME280;3226;42.162;24.756;2023-02-22T03:22:53;99495.44;;;10.36;40.74
6387;BME280;3226;42.162;24.756;2023-02-22T03:25:29;99509.69;;;10.01;41.58
6387;BME280;3226;42.162;24.756;2023-02-22T03:28:03;99506.34;;;9.77;42.01
6387;BME280;3226;42.162;24.756;2023-02-22T03:30:36;99480.19;;;9.45;42.52
6387;BME280;3226;42.162;24.756;2023-02-22T03:33:08;99514.38;;;9.53;42.86
6387;BME280;3226;42.162;24.756;2023-02-22T03:35:43;99514.97;;;9.57;42.61
6387;BME280;3226;42.162;24.756;2023-02-22T03:38:15;99515.91;;;9.55;42.78
6387;BME280;3226;42.162;24.756;2023-02-22T03:40:49;99516.63;;;9.58;42.74
6387;BME280;3226;42.162;24.756;2023-02-22T03:43:23;99512.50;;;9.44;42.86
6387;BME280;3226;42.162;24.756;2023-02-22T03:45:52;99496.00;;;9.32;43.00
6387;BME280;3226;42.162;24.756;2023-02-22T03:48:24;99519.78;;;9.40;42.93
6387;BME280;3226;42.162;24.756;2023-02-22T03:50:58;99515.91;;;9.55;42.86
6387;BME280;3226;42.162;24.756;2023-02-22T03:53:31;99517.06;;;9.63;42.58
6387;BME280;3226;42.162;24.756;2023-02-22T03:56:04;99518.03;;;9.62;42.79
6387;BME280;3226;42.162;24.756;2023-02-22T03:58:35;99475.56;;;9.37;42.70
6387;BME280;3226;42.162;24.756;2023-02-22T04:01:04;99511.06;;;9.83;42.32
6387;BME280;3226;42.162;24.756;2023-02-22T04:03:32;99519.00;;;10.15;41.96
6387;BME280;3226;42.162;24.756;2023-02-22T04:06:02;99511.78;;;10.28;41.14
6387;BME280;3226;42.162;24.756;2023-02-22T04:08:30;99517.19;;;10.36;41.06
6387;BME280;3226;42.162;24.756;2023-02-22T04:10:58;99513.03;;;10.45;40.45
6387;BME280;3226;42.162;24.756;2023-02-22T04:13:27;99513.34;;;10.52;40.35
6387;BME280;3226;42.162;24.756;2023-02-22T04:15:55;99513.63;;;10.59;40.50
6387;BME280;3226;42.162;24.756;2023-02-22T04:18:23;99515.69;;;10.55;40.32
6387;BME280;3226;42.162;24.756;2023-02-22T04:20:51;99523.16;;;10.60;40.00
6387;BME280;3226;42.162;24.756;2023-02-22T04:23:20;99521.63;;;10.57;40.33
6387;BME280;3226;42.162;24.756;2023-02-22T04:25:48;99512.66;;;10.60;39.83
6387;BME280;3226;42.162;24.756;2023-02-22T04:28:17;99504.13;;;10.58;39.54
6387;BME280;3226;42.162;24.756;2023-02-22T04:30:45;99507.22;;;10.73;39.69
6387;BME280;3226;42.162;24.756;2023-02-22T04:33:13;99517.47;;;10.85;38.89
6387;BME280;3226;42.162;24.756;2023-02-22T04:35:42;99523.56;;;10.86;39.36
6387;BME280;3226;42.162;24.756;2023-02-22T04:38:11;99520.38;;;10.82;39.23
6387;BME280;3226;42.162;24.756;2023-02-22T04:40:40;99519.94;;;10.77;38.94
6387;BME280;3226;42.162;24.756;2023-02-22T04:43:08;99516.78;;;10.83;38.83
6387;BME280;3226;42.162;24.756;2023-02-22T04:45:36;99517.78;;;10.92;38.83
6387;BME280;3226;42.162;24.756;2023-02-22T04:48:05;99508.97;;;10.93;38.62
6387;BME280;3226;42.162;24.756;2023-02-22T04:50:33;99495.97;;;10.92;38.35
6387;BME280;3226;42.162;24.756;2023-02-22T04:53:00;99520.88;;;11.07;38.29
6387;BME280;3226;42.162;24.756;2023-02-22T04:55:28;99513.50;;;10.91;38.02
6387;BME280;3226;42.162;24.756;2023-02-22T04:57:58;99514.69;;;10.77;38.55
6387;BME280;3226;42.162;24.756;2023-02-22T05:00:26;99511.75;;;10.70;38.91
6387;BME280;3226;42.162;24.756;2023-02-22T05:02:54;99513.31;;;10.73;39.02
6387;BME280;3226;42.162;24.756;2023-02-22T05:05:22;99507.66;;;10.78;38.92
6387;BME280;3226;42.162;24.756;2023-02-22T05:07:50;99513.06;;;10.55;39.29
6387;BME280;3226;42.162;24.756;2023-02-22T05:10:19;99510.59;;;10.84;39.13
6387;BME280;3226;42.162;24.756;2023-02-22T05:12:47;99508.22;;;10.81;38.99
6387;BME280;3226;42.162;24.756;2023-02-22T05:15:18;99505.22;;;10.86;38.79
6387;BME280;3226;42.162;24.756;2023-02-22T05:17:46;99508.13;;;10.93;38.77
6387;BME280;3226;42.162;24.756;2023-02-22T05:20:22;99511.69;;;10.82;38.90
6387;BME280;3226;42.162;24.756;2023-02-22T05:22:51;99512.50;;;10.82;38.99
6387;BME280;3226;42.162;24.756;2023-02-22T05:25:19;99519.97;;;10.87;39.04
6387;BME280;3226;42.162;24.756;2023-02-22T05:27:50;99523.28;;;10.89;38.77
6387;BME280;3226;42.162;24.756;2023-02-22T05:30:23;99511.16;;;10.88;38.65
6387;BME280;3226;42.162;24.756;2023-02-22T05:32:51;99525.72;;;11.22;38.20
6387;BME280;3226;42.162;24.756;2023-02-22T05:35:20;99523.72;;;11.35;37.89
6387;BME280;3226;42.162;24.756;2023-02-22T05:37:49;99507.00;;;11.26;37.26
6387;BME280;3226;42.162;24.756;2023-02-22T05:40:19;99531.03;;;11.61;37.13
6387;BME280;3226;42.162;24.756;2023-02-22T05:42:47;99531.06;;;11.71;37.02
6387;BME280;3226;42.162;24.756;2023-02-22T05:45:17;99531.75;;;11.83;36.75
6387;BME280;3226;42.162;24.756;2023-02-22T05:47:46;99490.59;;;11.54;36.81
6387;BME280;3226;42.162;24.756;2023-02-22T05:50:15;99530.78;;;11.74;36.78
6387;BME280;3226;42.162;24.756;2023-02-22T05:52:43;99536.31;;;11.91;36.50
6387;BME280;3226;42.162;24.756;2023-02-22T05:55:13;99525.69;;;11.92;36.47
6387;BME280;3226;42.162;24.756;2023-02-22T05:57:41;99544.31;;;11.79;36.51
6387;BME280;3226;42.162;24.756;2023-02-22T06:00:15;99548.31;;;11.83;36.59
6387;BME280;3226;42.162;24.756;2023-02-22T06:02:43;99553.16;;;11.88;36.50
6387;BME280;3226;42.162;24.756;2023-02-22T06:05:12;99555.53;;;12.01;36.52
6387;BME280;3226;42.162;24.756;2023-02-22T06:07:40;99552.78;;;12.03;36.44
6387;BME280;3226;42.162;24.756;2023-02-22T06:10:08;99553.44;;;12.24;36.06
6387;BME280;3226;42.162;24.756;2023-02-22T06:12:36;99559.09;;;12.39;35.86
6387;BME280;3226;42.162;24.756;2023-02-22T06:15:05;99565.72;;;12.43;35.25
6387;BME280;3226;42.162;24.756;2023-02-22T06:17:33;99567.09;;;12.57;35.84
6387;BME280;3226;42.162;24.756;2023-02-22T06:20:01;99559.75;;;12.61;35.56
6387;BME280;3226;42.162;24.756;2023-02-22T06:22:31;99558.13;;;12.50;35.71
6387;BME280;3226;42.162;24.756;2023-02-22T06:25:01;99558.78;;;12.62;35.71
6387;BME280;3226;42.162;24.756;2023-02-22T06:27:30;99570.47;;;12.78;35.65
6387;BME280;3226;42.162;24.756;2023-02-22T06:29:58;99560.97;;;12.67;35.36
6387;BME280;3226;42.162;24.756;2023-02-22T06:32:26;99570.09;;;12.72;35.32
6387;BME280;3226;42.162;24.756;2023-02-22T06:34:54;99573.88;;;12.60;35.58
6387;BME280;3226;42.162;24.756;2023-02-22T06:37:22;99575.66;;;12.50;35.45
6387;BME280;3226;42.162;24.756;2023-02-22T06:39:52;99572.09;;;12.41;35.25
6387;BME280;3226;42.162;24.756;2023-02-22T06:42:20;99577.88;;;12.35;35.57
6387;BME280;3226;42.162;24.756;2023-02-22T06:44:47;99583.13;;;12.44;36.35
6387;BME280;3226;42.162;24.756;2023-02-22T06:47:17;99594.72;;;12.52;41.42
6387;BME280;3226;42.162;24.756;2023-02-22T06:49:51;99588.75;;;11.51;39.85
6387;BME280;3226;42.162;24.756;2023-02-22T06:52:19;99563.53;;;11.29;40.17
6387;BME280;3226;42.162;24.756;2023-02-22T06:54:49;99581.88;;;11.70;39.71
6387;BME280;3226;42.162;24.756;2023-02-22T06:57:18;99583.28;;;11.94;41.97
6387;BME280;3226;42.162;24.756;2023-02-22T06:59:46;99582.84;;;11.98;39.03
6387;BME280;3226;42.162;24.756;2023-02-22T07:02:14;99591.34;;;12.22;38.34
6387;BME280;3226;42.162;24.756;2023-02-22T07:04:44;99591.06;;;12.25;38.25
6387;BME280;3226;42.162;24.756;2023-02-22T07:07:12;99586.31;;;12.58;37.82
6387;BME280;3226;42.162;24.756;2023-02-22T07:09:40;99599.38;;;12.78;37.46
6387;BME280;3226;42.162;24.756;2023-02-22T07:12:10;99588.16;;;12.85;36.97
6387;BME280;3226;42.162;24.756;2023-02-22T07:14:40;99589.66;;;12.88;37.06
6387;BME280;3226;42.162;24.756;2023-02-22T07:17:08;99579.66;;;13.11;37.55
6387;BME280;3226;42.162;24.756;2023-02-22T07:19:37;99577.59;;;13.33;36.70
6387;BME280;3226;42.162;24.756;2023-02-22T07:22:05;99583.91;;;13.40;36.28
6387;BME280;3226;42.162;24.756;2023-02-22T07:24:33;99580.47;;;13.68;35.71
6387;BME280;3226;42.162;24.756;2023-02-22T07:27:01;99581.59;;;13.83;34.64
6387;BME280;3226;42.162;24.756;2023-02-22T07:29:29;99584.16;;;14.11;33.61
6387;BME280;3226;42.162;24.756;2023-02-22T07:32:00;99580.22;;;14.34;32.87
6387;BME280;3226;42.162;24.756;2023-02-22T07:34:28;99580.19;;;14.52;33.16
6387;BME280;3226;42.162;24.756;2023-02-22T07:36:56;99579.72;;;14.74;32.41
6387;BME280;3226;42.162;24.756;2023-02-22T07:39:24;99576.16;;;14.92;32.55
6387;BME280;3226;42.162;24.756;2023-02-22T07:41:52;99565.38;;;15.03;31.65
6387;BME280;3226;42.162;24.756;2023-02-22T07:44:20;99567.06;;;15.13;31.37
6387;BME280;3226;42.162;24.756;2023-02-22T07:46:48;99559.19;;;15.29;31.00
6387;BME280;3226;42.162;24.756;2023-02-22T07:49:18;99564.13;;;15.32;30.89
6387;BME280;3226;42.162;24.756;2023-02-22T07:51:46;99573.28;;;15.55;31.34
6387;BME280;3226;42.162;24.756;2023-02-22T07:54:14;99567.19;;;15.71;30.55
6387;BME280;3226;42.162;24.756;2023-02-22T07:56:45;99540.88;;;15.96;30.82
6387;BME280;3226;42.162;24.756;2023-02-22T07:59:14;99530.97;;;16.23;30.81
6387;BME280;3226;42.162;24.756;2023-02-22T08:01:42;99561.28;;;16.68;29.84
6387;BME280;3226;42.162;24.756;2023-02-22T08:04:10;99563.16;;;17.08;29.67
6387;BME280;3226;42.162;24.756;2023-02-22T08:06:39;99557.72;;;17.72;27.97
6387;BME280;3226;42.162;24.756;2023-02-22T08:09:08;99560.00;;;18.75;27.00
6387;BME280;3226;42.162;24.756;2023-02-22T08:11:36;99567.75;;;19.22;26.10
6387;BME280;3226;42.162;24.756;2023-02-22T08:14:04;99548.13;;;19.38;26.11
6387;BME280;3226;42.162;24.756;2023-02-22T08:16:31;99560.09;;;19.86;25.61
6387;BME280;3226;42.162;24.756;2023-02-22T08:18:59;99556.66;;;19.48;25.66
6387;BME280;3226;42.162;24.756;2023-02-22T08:21:27;99547.09;;;18.87;26.00
6387;BME280;3226;42.162;24.756;2023-02-22T08:23:57;99543.00;;;19.52;25.89
6387;BME280;3226;42.162;24.756;2023-02-22T08:26:25;99548.03;;;19.46;25.95
6387;BME280;3226;42.162;24.756;2023-02-22T08:28:53;99548.50;;;18.98;25.94
6387;BME280;3226;42.162;24.756;2023-02-22T08:31:21;99542.22;;;19.21;26.44
6387;BME280;3226;42.162;24.756;2023-02-22T08:33:49;99542.22;;;20.51;25.32
6387;BME280;3226;42.162;24.756;2023-02-22T08:36:17;99538.63;;;20.66;24.85
6387;BME280;3226;42.162;24.756;2023-02-22T08:38:45;99533.00;;;20.19;24.84
6387;BME280;3226;42.162;24.756;2023-02-22T08:41:14;99540.84;;;20.62;24.94
6387;BME280;3226;42.162;24.756;2023-02-22T08:43:43;99538.06;;;20.77;24.66
6387;BME280;3226;42.162;24.756;2023-02-22T08:46:11;99533.38;;;20.44;25.12
6387;BME280;3226;42.162;24.756;2023-02-22T08:48:48;99526.19;;;20.73;24.90
6387;BME280;3226;42.162;24.756;2023-02-22T08:51:16;99535.81;;;20.74;24.98
6387;BME280;3226;42.162;24.756;2023-02-22T08:53:45;99538.91;;;21.20;24.62
6387;BME280;3226;42.162;24.756;2023-02-22T08:56:15;99532.63;;;21.41;24.19
6387;BME280;3226;42.162;24.756;2023-02-22T08:58:43;99541.94;;;20.75;24.40
6387;BME280;3226;42.162;24.756;2023-02-22T09:01:11;99533.63;;;20.49;24.72
6387;BME280;3226;42.162;24.756;2023-02-22T09:03:47;99534.91;;;21.51;24.25
6387;BME280;3226;42.162;24.756;2023-02-22T09:06:15;99523.03;;;21.60;23.60
6387;BME280;3226;42.162;24.756;2023-02-22T09:08:43;99529.06;;;21.14;24.65
6387;BME280;3226;42.162;24.756;2023-02-22T09:11:11;99535.28;;;21.41;23.96
6387;BME280;3226;42.162;24.756;2023-02-22T09:13:41;99527.53;;;20.91;24.28
6387;BME280;3226;42.162;24.756;2023-02-22T09:16:09;99524.16;;;21.24;24.06
6387;BME280;3226;42.162;24.756;2023-02-22T09:18:37;99526.69;;;21.46;24.25
6387;BME280;3226;42.162;24.756;2023-02-22T09:21:10;99528.81;;;22.18;24.15
6387;BME280;3226;42.162;24.756;2023-02-22T09:23:38;99521.59;;;21.51;23.57
6387;BME280;3226;42.162;24.756;2023-02-22T09:26:07;99530.38;;;21.45;23.77
6387;BME280;3226;42.162;24.756;2023-02-22T09:28:35;99530.91;;;22.02;23.70
6387;BME280;3226;42.162;24.756;2023-02-22T09:31:05;99517.34;;;21.84;23.51
6387;BME280;3226;42.162;24.756;2023-02-22T09:33:34;99508.69;;;21.61;23.99
6387;BME280;3226;42.162;24.756;2023-02-22T09:36:02;99507.22;;;21.45;23.90
6387;BME280;3226;42.162;24.756;2023-02-22T09:38:32;99513.81;;;21.56;23.87
6387;BME280;3226;42.162;24.756;2023-02-22T09:41:09;99516.50;;;21.63;24.42
6387;BME280;3226;42.162;24.756;2023-02-22T09:43:44;99507.59;;;21.29;24.15
6387;BME280;3226;42.162;24.756;2023-02-22T09:46:26;99507.66;;;20.87;24.53
6387;BME280;3226;42.162;24.756;2023-02-22T09:49:02;99482.63;;;20.39;24.37
6387;BME280;3226;42.162;24.756;2023-02-22T09:51:37;99504.09;;;20.09;25.29
6387;BME280;3226;42.162;24.756;2023-02-22T09:54:13;99503.88;;;20.11;25.51
6387;BME280;3226;42.162;24.756;2023-02-22T09:56:46;99499.81;;;20.78;24.90
6387;BME280;3226;42.162;24.756;2023-02-22T09:59:20;99498.44;;;21.58;24.71
6387;BME280;3226;42.162;24.756;2023-02-22T10:01:56;99484.09;;;21.59;24.14
6387;BME280;3226;42.162;24.756;2023-02-22T10:04:39;99494.38;;;20.58;24.39
6387;BME280;3226;42.162;24.756;2023-02-22T10:07:16;99451.00;;;20.58;24.88
6387;BME280;3226;42.162;24.756;2023-02-22T10:09:46;99489.38;;;20.42;24.95
6387;BME280;3226;42.162;24.756;2023-02-22T10:12:24;99486.09;;;20.40;25.04
6387;BME280;3226;42.162;24.756;2023-02-22T10:15:26;99475.69;;;20.45;24.82
6387;BME280;3226;42.162;24.756;2023-02-22T10:18:14;99470.44;;;21.00;24.34
6387;BME280;3226;42.162;24.756;2023-02-22T10:20:52;99470.34;;;20.80;24.78
6387;BME280;3226;42.162;24.756;2023-02-22T10:23:26;99463.72;;;21.11;24.57
6387;BME280;3226;42.162;24.756;2023-02-22T10:26:04;99462.75;;;21.39;24.75
6387;BME280;3226;42.162;24.756;2023-02-22T10:31:08;99449.03;;;21.29;24.70
6387;BME280;3226;42.162;24.756;2023-02-22T10:33:53;99446.53;;;21.27;23.99
6387;BME280;3226;42.162;24.756;2023-02-22T10:36:24;99435.09;;;21.40;24.22
6387;BME280;3226;42.162;24.756;2023-02-22T10:38:57;99439.41;;;21.48;24.10
6387;BME280;3226;42.162;24.756;2023-02-22T10:41:28;99427.47;;;21.17;24.35
6387;BME280;3226;42.162;24.756;2023-02-22T10:43:57;99429.31;;;21.16;24.51
6387;BME280;3226;42.162;24.756;2023-02-22T10:46:27;99413.16;;;21.25;24.66
6387;BME280;3226;42.162;24.756;2023-02-22T10:49:01;99411.94;;;21.27;24.07
6387;BME280;3226;42.162;24.756;2023-02-22T10:51:32;99398.84;;;21.39;24.21
6387;BME280;3226;42.162;24.756;2023-02-22T10:54:21;99405.56;;;21.28;23.45
6387;BME280;3226;42.162;24.756;2023-02-22T10:56:54;99391.25;;;20.54;24.39
6387;BME280;3226;42.162;24.756;2023-02-22T10:59:28;99398.19;;;20.55;25.10
6387;BME280;3226;42.162;24.756;2023-02-22T11:01:58;99386.16;;;20.65;24.67
6387;BME280;3226;42.162;24.756;2023-02-22T11:04:43;99377.06;;;20.95;24.60
6387;BME280;3226;42.162;24.756;2023-02-22T11:07:20;99393.69;;;21.11;24.16
6387;BME280;3226;42.162;24.756;2023-02-22T11:09:52;99376.50;;;21.20;25.27
6387;BME280;3226;42.162;24.756;2023-02-22T11:12:26;99349.19;;;20.84;24.08
6387;BME280;3226;42.162;24.756;2023-02-22T11:14:55;99378.06;;;20.80;24.20
6387;BME280;3226;42.162;24.756;2023-02-22T11:17:28;99368.25;;;21.01;24.58
6387;BME280;3226;42.162;24.756;2023-02-22T11:19:58;99372.56;;;20.96;24.55
6387;BME280;3226;42.162;24.756;2023-02-22T11:22:29;99370.06;;;20.80;23.71
6387;BME280;3226;42.162;24.756;2023-02-22T11:25:00;99343.38;;;20.60;24.19
6387;BME280;3226;42.162;24.756;2023-02-22T11:27:33;99356.47;;;20.62;24.05
6387;BME280;3226;42.162;24.756;2023-02-22T11:30:25;99360.69;;;20.98;24.14
6387;BME280;3226;42.162;24.756;2023-02-22T11:32:57;99360.72;;;21.32;23.34
6387;BME280;3226;42.162;24.756;2023-02-22T11:35:34;99337.97;;;21.02;23.54
6387;BME280;3226;42.162;24.756;2023-02-22T11:38:18;99342.66;;;21.00;23.29
6387;BME280;3226;42.162;24.756;2023-02-22T11:41:10;99353.34;;;21.20;23.73
6387;BME280;3226;42.162;24.756;2023-02-22T11:43:42;99352.09;;;21.16;23.04
6387;BME280;3226;42.162;24.756;2023-02-22T11:46:12;99350.28;;;21.17;22.84
6387;BME280;3226;42.162;24.756;2023-02-22T11:48:46;99340.25;;;21.39;22.73
6387;BME280;3226;42.162;24.756;2023-02-22T11:51:32;99339.63;;;21.23;22.64
6387;BME280;3226;42.162;24.756;2023-02-22T11:57:03;99320.97;;;21.30;22.64
6387;BME280;3226;42.162;24.756;2023-02-22T11:59:42;99323.44;;;21.32;23.85
6387;BME280;3226;42.162;24.756;2023-02-22T12:02:39;99321.00;;;21.44;22.92
6387;BME280;3226;42.162;24.756;2023-02-22T12:05:28;99324.47;;;21.11;22.70
6387;BME280;3226;42.162;24.756;2023-02-22T12:08:14;99330.34;;;20.79;23.26
6387;BME280;3226;42.162;24.756;2023-02-22T12:10:56;99312.28;;;20.61;23.02
6387;BME280;3226;42.162;24.756;2023-02-22T12:13:37;99316.19;;;20.72;23.26
6387;BME280;3226;42.162;24.756;2023-02-22T12:16:19;99313.19;;;20.95;22.80
6387;BME280;3226;42.162;24.756;2023-02-22T12:19:01;99307.88;;;21.02;22.93
6387;BME280;3226;42.162;24.756;2023-02-22T12:21:33;99308.50;;;21.11;23.21
6387;BME280;3226;42.162;24.756;2023-02-22T12:24:06;99312.59;;;21.00;23.10
6387;BME280;3226;42.162;24.756;2023-02-22T12:26:42;99302.53;;;20.95;23.21
6387;BME280;3226;42.162;24.756;2023-02-22T12:29:17;99299.66;;;20.83;22.83
6387;BME280;3226;42.162;24.756;2023-02-22T12:31:55;99294.34;;;20.83;23.18
6387;BME280;3226;42.162;24.756;2023-02-22T12:34:29;99298.47;;;21.13;23.01
6387;BME280;3226;42.162;24.756;2023-02-22T12:37:11;99286.16;;;21.25;22.72
6387;BME280;3226;42.162;24.756;2023-02-22T12:39:48;99291.47;;;21.38;22.21
6387;BME280;3226;42.162;24.756;2023-02-22T12:42:26;99290.47;;;21.40;23.53
6387;BME280;3226;42.162;24.756;2023-02-22T12:45:00;99285.72;;;21.55;23.17
6387;BME280;3226;42.162;24.756;2023-02-22T12:47:38;99271.84;;;21.13;23.03
6387;BME280;3226;42.162;24.756;2023-02-22T12:50:12;99283.50;;;21.25;23.00
6387;BME280;3226;42.162;24.756;2023-02-22T12:52:45;99282.06;;;21.29;23.08
6387;BME280;3226;42.162;24.756;2023-02-22T12:55:21;99280.03;;;21.18;22.52
6387;BME280;3226;42.162;24.756;2023-02-22T12:57:55;99265.06;;;21.30;22.85
6387;BME280;3226;42.162;24.756;2023-02-22T13:00:27;99264.25;;;21.16;22.91
6387;BME280;3226;42.162;24.756;2023-02-22T13:02:59;99270.19;;;21.05;22.78
6387;BME280;3226;42.162;24.756;2023-02-22T13:05:32;99270.97;;;20.78;23.36
6387;BME280;3226;42.162;24.756;2023-02-22T13:08:09;99268.53;;;20.70;23.23
6387;BME280;3226;42.162;24.756;2023-02-22T13:11:05;99263.84;;;20.86;23.09
6387;BME280;3226;42.162;24.756;2023-02-22T13:13:46;99251.75;;;21.03;23.34
6387;BME280;3226;42.162;24.756;2023-02-22T13:16:27;99253.00;;;21.07;22.92
6387;BME280;3226;42.162;24.756;2023-02-22T13:19:01;99250.13;;;21.02;23.38
6387;BME280;3226;42.162;24.756;2023-02-22T13:21:37;99243.56;;;21.18;23.31
6387;BME280;3226;42.162;24.756;2023-02-22T13:24:18;99256.06;;;21.11;23.34
6387;BME280;3226;42.162;24.756;2023-02-22T13:26:52;99252.78;;;21.09;23.20
6387;BME280;3226;42.162;24.756;2023-02-22T13:29:24;99255.47;;;20.96;23.27
6387;BME280;3226;42.162;24.756;2023-02-22T13:32:07;99243.38;;;21.06;23.37
6387;BME280;3226;42.162;24.756;2023-02-22T13:38:04;99250.53;;;21.40;22.63
6387;BME280;3226;42.162;24.756;2023-02-22T13:41:07;99251.75;;;21.30;22.51
6387;BME280;3226;42.162;24.756;2023-02-22T13:44:00;99243.38;;;21.20;22.04
6387;BME280;3226;42.162;24.756;2023-02-22T13:46:47;99241.13;;;21.10;22.55
6387;BME280;3226;42.162;24.756;2023-02-22T13:49:38;99246.88;;;21.14;22.50
6387;BME280;3226;42.162;24.756;2023-02-22T13:52:15;99244.78;;;21.29;22.22